createdAt,value
2024-04-25T00:00:26.311Z,11.39
2024-04-25T00:02:54.810Z,11.23
2024-04-25T00:05:23.210Z,11.28
2024-04-25T00:07:51.616Z,11.30
2024-04-25T00:10:19.879Z,11.31
2024-04-25T00:12:48.220Z,11.27
2024-04-25T00:15:16.381Z,11.31
2024-04-25T00:17:44.805Z,11.31
2024-04-25T00:20:13.295Z,11.29
2024-04-25T00:22:41.668Z,11.21
2024-04-25T00:25:09.946Z,11.24
2024-04-25T00:27:38.323Z,11.20
2024-04-25T00:30:07.316Z,11.22
2024-04-25T00:32:36.533Z,11.18
2024-04-25T00:35:05.443Z,11.10
2024-04-25T00:37:34.044Z,11.06
2024-04-25T00:40:04.162Z,11.03
2024-04-25T00:42:32.340Z,11.04
2024-04-25T00:45:00.528Z,11.20
2024-04-25T00:47:30.741Z,11.28
2024-04-25T00:50:00.836Z,11.30
2024-04-25T00:52:31.027Z,11.10
2024-04-25T00:54:59.446Z,11.07
2024-04-25T00:57:29.494Z,11.01
2024-04-25T00:59:59.352Z,10.95
2024-04-25T01:02:29.032Z,10.94
2024-04-25T01:04:58.147Z,10.90
2024-04-25T01:07:26.379Z,10.92
2024-04-25T01:09:57.797Z,10.86
2024-04-25T01:12:27.427Z,10.81
2024-04-25T01:14:55.643Z,10.77
2024-04-25T01:17:23.581Z,10.78
2024-04-25T01:19:51.873Z,10.72
2024-04-25T01:22:21.180Z,10.66
2024-04-25T01:24:50.569Z,10.66
2024-04-25T01:27:19.816Z,10.71
2024-04-25T01:29:49.671Z,10.72
2024-04-25T01:32:18.603Z,10.72
2024-04-25T01:34:47.068Z,10.76
2024-04-25T01:37:15.642Z,10.80
2024-04-25T01:39:44.088Z,10.70
2024-04-25T01:42:12.459Z,10.35
2024-04-25T01:44:40.717Z,10.58
2024-04-25T01:47:09.105Z,10.48
2024-04-25T01:49:37.524Z,10.50
2024-04-25T01:52:06.405Z,10.41
2024-04-25T01:54:34.536Z,10.48
2024-04-25T01:57:02.404Z,10.45
2024-04-25T01:59:30.573Z,10.45
2024-04-25T02:01:58.939Z,10.43
2024-04-25T02:04:27.238Z,10.45
2024-04-25T02:06:55.612Z,10.43
2024-04-25T02:09:23.989Z,10.36
2024-04-25T02:11:52.409Z,10.36
2024-04-25T02:14:20.801Z,10.39
2024-04-25T02:16:49.292Z,10.05
2024-04-25T02:19:17.576Z,10.35
2024-04-25T02:22:04.204Z,10.34
2024-04-25T02:24:51.396Z,10.00
2024-04-25T02:27:19.689Z,10.34
2024-04-25T02:29:48.200Z,10.32
2024-04-25T02:32:16.618Z,10.26
2024-04-25T02:34:44.851Z,10.28
2024-04-25T02:37:12.812Z,10.33
2024-04-25T02:39:41.628Z,10.26
2024-04-25T02:42:10.055Z,10.28
2024-04-25T02:44:38.369Z,10.38
2024-04-25T02:47:06.688Z,10.34
2024-04-25T02:49:35.196Z,10.43
2024-04-25T02:52:03.840Z,10.44
2024-04-25T02:54:32.226Z,10.48
2024-04-25T02:57:00.736Z,10.48
2024-04-25T02:59:29.035Z,10.49
2024-04-25T03:01:57.358Z,10.56
2024-04-25T03:04:26.610Z,10.25
2024-04-25T03:06:55.085Z,10.59
2024-04-25T03:09:23.414Z,10.70
2024-04-25T03:11:51.954Z,10.74
2024-04-25T03:14:20.314Z,10.79
2024-04-25T03:16:48.564Z,10.93
2024-04-25T03:19:17.233Z,10.97
2024-04-25T03:21:45.628Z,10.88
2024-04-25T03:24:13.698Z,11.06
2024-04-25T03:26:42.076Z,11.10
2024-04-25T03:29:10.913Z,11.13
2024-04-25T03:31:39.121Z,11.27
2024-04-25T03:34:06.997Z,11.25
2024-04-25T03:36:35.617Z,11.23
2024-04-25T03:39:03.860Z,11.34
2024-04-25T03:41:34.340Z,11.48
2024-04-25T03:44:03.022Z,11.60
2024-04-25T03:46:31.292Z,11.72
2024-04-25T03:49:00.607Z,11.85
2024-04-25T03:51:28.781Z,11.99
2024-04-25T03:53:56.797Z,12.15
2024-04-25T03:56:24.683Z,12.23
2024-04-25T03:58:52.866Z,12.26
2024-04-25T04:01:21.687Z,12.43
2024-04-25T04:03:49.949Z,12.37
2024-04-25T04:06:24.392Z,12.63
2024-04-25T04:08:52.730Z,13.03
2024-04-25T04:11:21.463Z,13.20
2024-04-25T04:13:49.738Z,13.23
2024-04-25T04:16:18.199Z,13.29
2024-04-25T04:18:47.219Z,13.34
2024-04-25T04:21:15.531Z,13.40
2024-04-25T04:23:44.916Z,13.45
2024-04-25T04:26:13.219Z,13.47
2024-04-25T04:28:41.294Z,13.50
2024-04-25T04:31:09.175Z,13.51
2024-04-25T04:33:40.551Z,13.54
2024-04-25T04:36:09.515Z,13.57
2024-04-25T04:38:37.825Z,13.60
2024-04-25T04:41:06.442Z,13.60
2024-04-25T04:43:34.870Z,13.67
2024-04-25T04:46:05.484Z,13.70
2024-04-25T04:48:35.075Z,13.68
2024-04-25T04:51:04.548Z,13.77
2024-04-25T04:53:32.718Z,13.77
2024-04-25T04:56:01.200Z,13.85
2024-04-25T04:58:29.739Z,13.89
2024-04-25T05:00:58.064Z,13.91
2024-04-25T05:03:26.455Z,13.88
2024-04-25T05:05:54.847Z,14.04
2024-04-25T05:08:24.060Z,14.03
2024-04-25T05:10:52.377Z,13.88
2024-04-25T05:13:21.049Z,14.13
2024-04-25T05:15:49.362Z,14.27
2024-04-25T05:18:17.623Z,14.36
2024-04-25T05:20:46.132Z,14.50
2024-04-25T05:23:13.899Z,14.76
2024-04-25T05:25:42.177Z,14.95
2024-04-25T05:28:10.327Z,14.88
2024-04-25T05:30:38.630Z,15.25
2024-04-25T05:33:07.100Z,15.33
2024-04-25T05:35:36.034Z,15.46
2024-04-25T05:38:04.411Z,15.52
2024-04-25T05:40:33.056Z,15.47
2024-04-25T05:43:01.133Z,15.59
2024-04-25T05:45:29.557Z,15.75
2024-04-25T05:47:58.268Z,15.84
2024-04-25T05:50:26.841Z,15.73
2024-04-25T05:52:55.189Z,15.87
2024-04-25T05:55:23.377Z,16.11
2024-04-25T05:57:51.351Z,16.29
2024-04-25T06:00:20.039Z,16.44
2024-04-25T06:02:48.379Z,16.53
2024-04-25T06:05:16.564Z,16.62
2024-04-25T06:07:44.450Z,16.75
2024-04-25T06:10:13.274Z,16.81
2024-04-25T06:12:41.467Z,16.89
2024-04-25T06:15:09.749Z,16.91
2024-04-25T06:17:42.507Z,17.09
2024-04-25T06:20:14.312Z,17.14
2024-04-25T06:22:42.572Z,17.25
2024-04-25T06:25:10.781Z,17.30
2024-04-25T06:27:39.332Z,17.29
2024-04-25T06:30:08.172Z,17.36
2024-04-25T06:32:39.242Z,17.37
2024-04-25T06:35:08.517Z,17.42
2024-04-25T06:37:37.138Z,17.43
2024-04-25T06:40:05.927Z,17.19
2024-04-25T06:42:34.615Z,17.55
2024-04-25T06:45:03.039Z,17.63
2024-04-25T06:47:32.931Z,17.70
2024-04-25T06:50:01.551Z,17.75
2024-04-25T06:52:31.110Z,17.77
2024-04-25T06:54:59.424Z,17.76
2024-04-25T06:57:28.108Z,17.85
2024-04-25T06:59:58.003Z,17.89
2024-04-25T07:02:26.761Z,18.03
2024-04-25T07:04:58.422Z,17.97
2024-04-25T07:07:31.086Z,18.10
2024-04-25T07:09:59.411Z,18.21
2024-04-25T07:12:31.973Z,18.32
2024-04-25T07:15:05.906Z,18.36
2024-04-25T07:17:35.413Z,18.53
2024-04-25T07:20:04.857Z,18.67
2024-04-25T07:22:33.151Z,18.71
2024-04-25T07:25:01.333Z,18.79
2024-04-25T07:27:35.551Z,18.89
2024-04-25T07:30:03.988Z,18.94
2024-04-25T07:32:32.643Z,18.99
2024-04-25T07:35:00.944Z,19.12
2024-04-25T07:37:37.259Z,19.07
2024-04-25T07:40:06.658Z,19.27
2024-04-25T07:42:34.712Z,19.38
2024-04-25T07:45:05.768Z,19.56
2024-04-25T07:47:34.318Z,19.59
2024-04-25T07:50:02.818Z,19.79
2024-04-25T07:52:31.555Z,19.90
2024-04-25T07:54:59.711Z,19.96
2024-04-25T07:57:28.150Z,20.22
2024-04-25T07:59:59.282Z,20.33
2024-04-25T08:02:27.750Z,20.41
2024-04-25T08:04:57.248Z,20.55
2024-04-25T08:07:25.543Z,20.66
2024-04-25T08:09:55.595Z,20.52
2024-04-25T08:12:25.217Z,20.77
2024-04-25T08:14:53.539Z,20.82
2024-04-25T08:17:21.712Z,21.00
2024-04-25T08:19:54.325Z,21.18
2024-04-25T08:22:24.089Z,21.37
2024-04-25T08:24:53.282Z,21.44
2024-04-25T08:27:21.460Z,21.66
2024-04-25T08:29:50.268Z,21.79
2024-04-25T08:32:21.256Z,21.94
2024-04-25T08:34:50.853Z,22.16
2024-04-25T08:37:19.008Z,22.26
2024-04-25T08:39:47.292Z,22.41
2024-04-25T08:42:19.722Z,22.61
2024-04-25T08:44:50.380Z,22.74
2024-04-25T08:47:19.848Z,22.95
2024-04-25T08:49:50.130Z,23.19
2024-04-25T08:52:19.453Z,23.12
2024-04-25T08:54:50.922Z,23.26
2024-04-25T08:57:19.319Z,23.66
2024-04-25T08:59:47.669Z,23.69
2024-04-25T09:02:16.796Z,23.75
2024-04-25T09:04:46.283Z,23.99
2024-04-25T09:07:14.514Z,23.98
2024-04-25T09:09:42.532Z,24.20
2024-04-25T09:12:10.640Z,24.46
2024-04-25T09:14:39.071Z,24.68
2024-04-25T09:17:16.703Z,24.81
2024-04-25T09:19:45.984Z,25.02
2024-04-25T09:22:14.344Z,25.22
2024-04-25T09:24:42.898Z,25.24
2024-04-25T09:27:11.150Z,25.46
2024-04-25T09:29:39.515Z,25.55
2024-04-25T09:32:11.298Z,25.48
2024-04-25T09:34:39.411Z,25.33
2024-04-25T09:37:07.784Z,25.52
2024-04-25T09:39:37.634Z,25.74
2024-04-25T09:42:09.237Z,25.93
2024-04-25T09:44:39.540Z,26.27
2024-04-25T09:47:13.858Z,26.58
2024-04-25T09:49:53.046Z,26.80
2024-04-25T09:52:29.684Z,26.89
2024-04-25T09:55:04.715Z,26.65
2024-04-25T09:57:34.604Z,26.63
2024-04-25T10:00:08.368Z,26.81
2024-04-25T10:02:38.386Z,26.72
2024-04-25T10:05:07.200Z,26.86
2024-04-25T10:07:36.911Z,27.12
2024-04-25T10:10:06.101Z,27.54
2024-04-25T10:12:34.349Z,27.93
2024-04-25T10:15:04.252Z,27.71
2024-04-25T10:17:39.763Z,27.67
2024-04-25T10:20:09.275Z,27.66
2024-04-25T10:22:42.182Z,27.85
2024-04-25T10:25:16.866Z,27.93
2024-04-25T10:27:46.650Z,28.16
2024-04-25T10:30:17.544Z,28.37
2024-04-25T10:32:45.963Z,28.77
2024-04-25T10:35:15.276Z,28.88
2024-04-25T10:37:46.560Z,28.88
2024-04-25T10:40:16.812Z,29.23
2024-04-25T10:42:45.518Z,29.32
2024-04-25T10:45:13.663Z,29.07
2024-04-25T10:47:42.101Z,29.16
2024-04-25T10:50:10.640Z,29.45
2024-04-25T10:52:39.238Z,29.53
2024-04-25T10:55:07.975Z,29.62
2024-04-25T10:57:36.488Z,29.60
2024-04-25T11:00:05.305Z,29.91
2024-04-25T11:02:37.168Z,30.26
2024-04-25T11:05:06.629Z,30.10
2024-04-25T11:07:34.821Z,30.14
2024-04-25T11:10:03.012Z,30.18
2024-04-25T11:12:32.182Z,29.74
2024-04-25T11:15:01.017Z,29.79
2024-04-25T11:17:37.047Z,29.33
2024-04-25T11:20:10.226Z,29.63
2024-04-25T11:22:45.397Z,29.92
2024-04-25T11:25:21.674Z,30.57
2024-04-25T11:27:51.635Z,31.10
2024-04-25T11:30:19.946Z,31.05
2024-04-25T11:32:48.671Z,31.15
2024-04-25T11:35:23.551Z,31.47
2024-04-25T11:37:56.292Z,31.86
2024-04-25T11:40:38.004Z,32.21
2024-04-25T11:43:06.623Z,32.15
2024-04-25T11:45:36.133Z,32.05
2024-04-25T11:48:08.286Z,31.95
2024-04-25T11:50:36.911Z,32.08
2024-04-25T11:53:09.963Z,32.37
2024-04-25T11:55:40.142Z,32.09
2024-04-25T11:58:09.328Z,32.06
2024-04-25T12:00:38.573Z,32.46
2024-04-25T12:03:07.734Z,32.96
2024-04-25T12:05:36.547Z,33.80
2024-04-25T12:08:05.266Z,34.32
2024-04-25T12:10:33.778Z,34.71
2024-04-25T12:13:02.889Z,34.64
2024-04-25T12:15:31.110Z,34.55
2024-04-25T12:17:59.491Z,34.78
2024-04-25T12:20:27.926Z,34.54
2024-04-25T12:22:56.276Z,34.20
2024-04-25T12:25:24.679Z,34.34
2024-04-25T12:27:52.920Z,34.86
2024-04-25T12:30:21.038Z,35.39
2024-04-25T12:32:49.370Z,36.17
2024-04-25T12:35:17.731Z,36.61
2024-04-25T12:37:46.208Z,36.28
2024-04-25T12:40:14.534Z,36.65
2024-04-25T12:42:42.842Z,36.70
2024-04-25T12:45:18.052Z,36.14
2024-04-25T12:47:46.464Z,36.46
2024-04-25T12:50:17.476Z,36.70
2024-04-25T12:52:47.427Z,36.74
2024-04-25T12:55:15.665Z,36.60
2024-04-25T12:57:44.075Z,36.83
2024-04-25T13:00:13.507Z,37.16
2024-04-25T13:02:41.808Z,37.19
2024-04-25T13:05:09.929Z,36.53
2024-04-25T13:07:38.040Z,36.10
2024-04-25T13:10:06.410Z,36.20
2024-04-25T13:12:34.800Z,36.05
2024-04-25T13:15:03.058Z,36.27
2024-04-25T13:17:31.815Z,35.72
2024-04-25T13:20:00.253Z,36.39
2024-04-25T13:22:28.650Z,36.89
2024-04-25T13:24:57.443Z,36.59
2024-04-25T13:27:25.998Z,37.01
2024-04-25T13:29:54.384Z,36.55
2024-04-25T13:32:22.933Z,36.14
2024-04-25T13:34:53.438Z,35.48
2024-04-25T13:37:21.741Z,35.35
2024-04-25T13:39:54.448Z,35.39
2024-04-25T13:42:23.210Z,35.14
2024-04-25T13:44:51.378Z,34.89
2024-04-25T13:47:19.584Z,34.88
2024-04-25T13:49:47.825Z,35.52
2024-04-25T13:52:16.584Z,36.09
2024-04-25T13:54:45.226Z,36.25
2024-04-25T13:57:13.816Z,36.24
2024-04-25T13:59:42.128Z,35.61
2024-04-25T14:02:11.736Z,35.36
2024-04-25T14:04:40.446Z,34.90
2024-04-25T14:07:10.098Z,35.03
2024-04-25T14:09:42.944Z,34.68
2024-04-25T14:12:11.189Z,33.99
2024-04-25T14:14:39.347Z,34.11
2024-04-25T14:17:07.385Z,33.75
2024-04-25T14:19:35.565Z,33.58
2024-04-25T14:22:03.794Z,33.43
2024-04-25T14:24:35.524Z,33.62
2024-04-25T14:27:22.793Z,33.58
2024-04-25T14:29:51.047Z,32.80
2024-04-25T14:32:19.478Z,32.39
2024-04-25T14:34:48.785Z,32.27
2024-04-25T14:37:18.326Z,31.96
2024-04-25T14:39:46.452Z,31.83
2024-04-25T14:42:14.676Z,31.03
2024-04-25T14:44:42.780Z,30.18
2024-04-25T14:47:10.846Z,29.86
2024-04-25T14:49:40.169Z,29.50
2024-04-25T14:52:08.328Z,28.43
2024-04-25T14:54:36.567Z,27.89
2024-04-25T14:57:05.046Z,27.86
2024-04-25T14:59:33.471Z,27.22
2024-04-25T15:02:01.795Z,26.95
2024-04-25T15:31:32.369Z,22.83
2024-04-25T15:34:00.689Z,22.90
2024-04-25T15:36:29.075Z,22.94
2024-04-25T15:38:57.519Z,22.95
2024-04-25T15:41:25.945Z,23.01
2024-04-25T15:43:54.284Z,22.97
2024-04-25T15:46:22.642Z,22.93
2024-04-25T15:48:51.101Z,22.97
2024-04-25T15:51:19.391Z,22.95
2024-04-25T15:53:49.377Z,22.85
2024-04-25T15:56:17.725Z,22.77
2024-04-25T15:58:46.529Z,22.66
2024-04-25T16:01:16.222Z,22.58
2024-04-25T16:03:47.545Z,22.44
2024-04-25T16:06:20.446Z,22.26
2024-04-25T16:08:50.109Z,22.05
2024-04-25T16:11:18.486Z,21.93
2024-04-25T16:31:34.233Z,19.83
2024-04-25T16:34:02.750Z,19.97
2024-04-25T16:36:32.164Z,19.99
2024-04-25T16:39:00.471Z,20.15
2024-04-25T16:41:28.834Z,20.23
2024-04-25T16:43:57.998Z,20.32
2024-04-25T16:46:26.182Z,20.29
2024-04-25T16:50:52.902Z,20.08
2024-04-25T16:53:21.529Z,20.12
2024-04-25T16:55:50.968Z,20.05
2024-04-25T16:58:19.365Z,20.02
2024-04-25T17:00:47.970Z,20.01
2024-04-25T17:03:44.595Z,20.04
2024-04-25T17:06:15.265Z,19.94
2024-04-25T17:08:44.353Z,20.01
2024-04-25T17:11:28.987Z,20.10
2024-04-25T17:14:05.274Z,20.04
2024-04-25T17:16:35.736Z,20.01
2024-04-25T17:19:06.648Z,19.91
2024-04-25T17:21:39.104Z,19.80
2024-04-25T17:24:07.978Z,19.77
2024-04-25T17:26:37.087Z,19.66
2024-04-25T17:29:07.218Z,19.73
2024-04-25T17:32:03.112Z,19.77
2024-04-25T17:34:31.508Z,19.72
2024-04-25T17:36:59.776Z,19.76
2024-04-25T17:39:29.836Z,19.75
2024-04-25T17:41:58.843Z,19.75
2024-04-25T17:44:29.814Z,19.73
2024-04-25T17:47:01.728Z,19.67
2024-04-25T17:49:31.499Z,19.64
2024-04-25T17:52:03.153Z,19.61
2024-04-25T17:54:31.446Z,19.65
2024-04-25T17:56:59.888Z,19.68
2024-04-25T17:59:28.290Z,19.66
2024-04-25T18:01:57.902Z,19.66
2024-04-25T18:04:26.633Z,19.58
2024-04-25T18:06:57.003Z,19.64
2024-04-25T18:09:25.395Z,19.59
2024-04-25T18:11:53.948Z,19.54
2024-04-25T18:14:22.358Z,19.40
2024-04-25T18:16:50.649Z,19.47
2024-04-25T18:19:18.957Z,19.48
2024-04-25T18:21:48.978Z,19.52
2024-04-25T18:24:18.163Z,19.51
2024-04-25T18:26:47.893Z,19.46
2024-04-25T18:29:16.246Z,19.45
2024-04-25T18:31:44.550Z,19.46
2024-04-25T18:34:12.929Z,19.41
2024-04-25T18:36:41.161Z,19.42
2024-04-25T18:39:12.464Z,19.35
2024-04-25T18:41:41.183Z,19.26
2024-04-25T18:44:09.375Z,19.30
2024-04-25T18:46:37.726Z,19.19
2024-04-25T18:49:10.217Z,19.05
2024-04-25T18:51:39.198Z,18.99
2024-04-25T18:54:07.554Z,18.93
2024-04-25T18:56:37.074Z,18.92
2024-04-25T18:59:05.950Z,18.93
2024-04-25T19:01:34.195Z,18.91
2024-04-25T19:04:02.612Z,18.91
2024-04-25T19:06:30.812Z,18.97
2024-04-25T19:09:00.541Z,18.94
2024-04-25T19:11:28.830Z,18.79
2024-04-25T19:13:58.016Z,18.75
2024-04-25T19:16:27.082Z,18.62
2024-04-25T19:18:55.471Z,18.56
2024-04-25T19:21:23.675Z,18.46
2024-04-25T19:23:52.778Z,18.41
2024-04-25T19:26:20.986Z,18.37
2024-04-25T19:28:49.145Z,18.31
2024-04-25T19:31:17.313Z,18.26
2024-04-25T19:33:47.813Z,18.22
2024-04-25T19:36:16.880Z,18.30
2024-04-25T19:38:45.457Z,18.28
2024-04-25T19:41:13.840Z,18.41
2024-04-25T19:43:41.915Z,18.39
2024-04-25T19:46:13.860Z,18.39
2024-04-25T19:48:44.222Z,18.33
2024-04-25T19:51:12.565Z,18.37
2024-04-25T19:53:43.856Z,18.41
2024-04-25T19:56:14.750Z,18.41
2024-04-25T19:58:45.693Z,18.41
2024-04-25T20:01:17.432Z,18.40
2024-04-25T20:03:46.640Z,18.42
2024-04-25T20:06:17.268Z,18.42
2024-04-25T20:08:45.453Z,18.38
2024-04-25T20:11:13.704Z,18.32
2024-04-25T20:13:42.577Z,18.39
2024-04-25T20:16:17.506Z,18.33
2024-04-25T20:19:04.692Z,18.31
2024-04-25T20:21:34.158Z,18.26
2024-04-25T20:24:05.245Z,18.24
2024-04-25T20:26:34.111Z,18.22
2024-04-25T20:29:02.330Z,18.15
2024-04-25T20:31:30.379Z,17.82
2024-04-25T20:34:01.784Z,17.87
2024-04-25T20:36:29.906Z,17.71
2024-04-25T20:38:58.004Z,17.74
2024-04-25T20:41:27.851Z,17.79
2024-04-25T20:43:56.133Z,17.82
2024-04-25T20:46:25.059Z,17.67
2024-04-25T20:48:56.574Z,17.53
2024-04-25T20:51:26.708Z,17.41
2024-04-25T20:53:54.939Z,17.31
2024-04-25T20:56:24.110Z,17.15
2024-04-25T20:58:52.601Z,17.07
2024-04-25T21:01:20.973Z,17.05
2024-04-25T21:03:49.227Z,17.00
2024-04-25T21:06:17.305Z,16.94
2024-04-25T21:08:45.231Z,16.93
2024-04-25T21:11:13.565Z,16.90
2024-04-25T21:13:41.812Z,16.93
2024-04-25T21:16:12.858Z,16.90
2024-04-25T21:18:41.043Z,16.92
2024-04-25T21:21:09.587Z,17.00
2024-04-25T21:23:37.777Z,16.98
2024-04-25T21:26:07.099Z,17.04
2024-04-25T21:28:35.242Z,17.07
2024-04-25T21:31:03.452Z,17.14
2024-04-25T21:33:31.678Z,17.17
2024-04-25T21:35:59.975Z,17.20
2024-04-25T21:38:28.203Z,16.96
2024-04-25T21:40:57.408Z,17.11
2024-04-25T21:43:27.101Z,17.21
2024-04-25T21:45:55.257Z,17.13
2024-04-25T21:48:24.187Z,17.21
2024-04-25T21:50:53.991Z,17.04
2024-04-25T21:53:23.915Z,17.05
2024-04-25T21:55:52.193Z,17.08
2024-04-25T21:58:20.511Z,17.04
2024-04-25T22:00:48.715Z,17.02
2024-04-25T22:03:16.995Z,17.04
2024-04-25T22:05:45.083Z,17.04
2024-04-25T22:08:13.352Z,17.06
2024-04-25T22:10:41.481Z,17.00
2024-04-25T22:13:09.954Z,16.98
2024-04-25T22:15:38.497Z,16.96
2024-04-25T22:18:08.257Z,16.91
2024-04-25T22:20:36.519Z,16.89
2024-04-25T22:23:05.180Z,16.88
2024-04-25T22:25:33.542Z,16.86
2024-04-25T22:28:01.832Z,16.86
2024-04-25T22:30:30.282Z,16.90
2024-04-25T22:32:58.668Z,16.91
2024-04-25T22:35:26.982Z,16.91
2024-04-25T22:37:55.381Z,16.86
2024-04-25T22:40:23.574Z,16.87
2024-04-25T22:42:51.561Z,16.58
2024-04-25T22:45:24.790Z,16.82
2024-04-25T22:47:56.953Z,16.81
2024-04-25T22:50:25.228Z,16.80
2024-04-25T22:52:53.432Z,16.74
2024-04-25T22:55:21.643Z,16.71
2024-04-25T22:57:49.857Z,16.63
2024-04-25T23:00:18.309Z,16.46
2024-04-25T23:02:47.193Z,16.57
2024-04-25T23:05:15.793Z,16.58
2024-04-25T23:07:46.704Z,16.64
2024-04-25T23:10:15.106Z,16.63
2024-04-25T23:12:43.283Z,16.58
2024-04-25T23:15:11.379Z,16.61
2024-04-25T23:17:39.368Z,16.60
2024-04-25T23:20:07.983Z,16.40
2024-04-25T23:22:36.339Z,16.26
2024-04-25T23:25:04.587Z,16.17
2024-04-25T23:27:34.385Z,16.10
2024-04-25T23:30:02.626Z,16.16
2024-04-25T23:32:31.529Z,16.17
2024-04-25T23:34:59.765Z,16.13
2024-04-25T23:37:27.468Z,16.05
2024-04-25T23:39:55.793Z,15.85
2024-04-25T23:42:23.942Z,16.00
2024-04-25T23:44:52.449Z,16.08
2024-04-25T23:47:21.648Z,16.03
2024-04-25T23:49:50.032Z,15.92
2024-04-25T23:52:18.988Z,15.95
2024-04-25T23:54:47.922Z,15.99
2024-04-25T23:57:15.965Z,15.96
2024-04-25T23:59:44.103Z,15.96
